Station: Naracoorte

  Atmospheric Gas Attenuation - ITU Rec 676-11   --------------- db/100km ---------------
Date Time Temp RH % AH g/m3 Dew Point Wind Direction Speed kph Gust kph Barometer mB Rainfall Since 9am 24GHz 47GHz 76GHz 122GHz 134GHz 241GHz
15 01:00 7.6 90 7.25 6.1 15 17 1018.9 4 17.0 25.7 37.6 98.3 88.2 301.7
15 00:50 7.6 90 7.25 6.1 13 15 1019.1 4 17.0 25.7 37.6 98.3 88.2 301.7
15 00:40 7.6 89 7.17 5.9 11 13 1019.1 4 16.8 25.6 37.2 97.4 87.1 297.9
15 00:30 7.6 89 7.17 5.9 13 17 1019.1 4 16.8 25.6 37.2 97.4 87.1 297.9
15 00:20 7.5 89 7.13 5.8 15 19 1019.2 4 16.7 25.5 37.1 97.1 86.6 296.4
15 00:10 7.5 90 7.21 6 11 15 1019.3 4 16.9 25.7 37.5 98.0 87.7 300.3
15 00:00 7.4 90 7.16 5.9 9 11 1019.4 4 16.8 25.6 37.3 97.6 87.2 298.3
14 23:50 7.3 90 7.11 5.8 11 13 1019.4 4 16.7 25.6 37.1 97.2 86.6 296.2
14 23:40 7.3 89 7.04 5.6 11 15 1019.4 4 16.5 25.4 36.8 96.4 85.7 292.9
14 23:30 7.5 89 7.13 5.8 13 17 1019.4 4 16.7 25.5 37.1 97.2 86.7 296.4
14 23:20 7.5 88 7.05 5.6 20 22 1019.4 4 16.5 25.4 36.8 96.3 85.6 292.6
14 23:10 7.4 89 7.08 5.7 13 15 1019.5 4 16.6 25.5 37.0 96.7 86.1 294.5
14 23:00 7.3 90 7.11 5.8 15 19 1019.5 4 16.7 25.6 37.1 97.2 86.6 296.3
14 22:50 7.3 90 7.11 5.8 13 15 1019.5 4 16.7 25.6 37.1 97.2 86.6 296.3
14 22:40 7.3 90 7.11 5.8 15 17 1019.4 4 16.7 25.6 37.1 97.2 86.6 296.2
14 22:30 7.4 90 7.16 5.9 19 20 1019.2 4 16.8 25.6 37.3 97.6 87.2 298.2
14 22:20 7.5 90 7.21 6 19 24 1019.1 4 16.9 25.7 37.4 98.0 87.7 300.2
14 22:10 7.5 90 7.21 6 22 26 1019 4 16.9 25.7 37.4 98.0 87.7 300.2
14 22:00 7.5 91 7.29 6.1 17 19 1019 4 17.1 25.8 37.8 98.9 88.8 304.0
14 21:50 7.4 91 7.24 6 19 19 1019 4 17.0 25.7 37.6 98.5 88.3 302.0
14 21:40 7.4 90 7.16 5.9 15 19 1019.2 4 16.8 25.6 37.3 97.6 87.2 298.2
14 21:30 7.3 92 7.27 6.1 13 17 1019.1 4 17.0 25.8 37.8 98.9 88.8 303.9
14 21:20 7.2 92 7.23 6 15 19 1019 4 16.9 25.8 37.7 98.6 88.3 302.3
14 21:10 7.1 93 7.26 6 13 15 1019.1 4 17.0 25.9 37.8 99.1 88.9 304.2
14 21:00 7.2 93 7.3 6.1 11 13 1019.1 4 17.1 25.9 38.0 99.4 89.3 305.7
14 20:50 7.2 92 7.23 6 11 13 1019.1 4 16.9 25.8 37.7 98.6 88.4 302.3
14 20:40 7.2 92 7.23 6 13 15 1019 4 16.9 25.8 37.7 98.6 88.3 302.3
14 20:30 7.1 92 7.18 5.9 15 17 1018.9 4 16.8 25.7 37.5 98.2 87.8 300.3
14 20:20 7.2 92 7.23 6 15 19 1018.7 4 16.9 25.8 37.7 98.6 88.3 302.2
14 20:10 7.4 92 7.32 6.2 13 15 1018.5 4 17.1 25.8 37.9 99.3 89.3 305.8
14 20:00 7.6 92 7.42 6.4 15 19 1018.5 4 17.3 26.0 38.2 100.2 90.5 309.8
14 19:50 7.7 92 7.46 6.5 19 22 1018.6 4 17.4 26.0 38.4 100.5 90.9 311.4
14 19:40 7.8 92 7.51 6.6 15 17 1018.6 4 17.5 26.1 38.5 100.9 91.5 313.4
14 19:30 7.7 93 7.54 6.6 15 20 1018.5 4 17.6 26.1 38.7 101.4 92.0 315.2
14 19:20 7.6 93 7.5 6.5 19 24 1018.4 4 17.5 26.1 38.6 101.1 91.6 313.6
14 19:10 7.8 96 7.84 7.2 17 19 1018.4 4 18.2 26.6 39.9 104.6 96.1 329.4
14 19:00 7.9 98 8.05 7.6 11 13 1018.4 4 18.7 26.9 40.8 106.9 98.9 339.3
14 18:50 7.9 98 8.05 7.6 13 15 1018.2 4 18.7 26.9 40.8 106.9 98.9 339.2
14 18:40 7.9 97 7.97 7.5 17 19 1018 3.8 18.5 26.8 40.4 105.9 97.7 335.2
14 18:30 8 96 7.94 7.4 20 22 1017.9 3.8 18.4 26.7 40.2 105.4 97.2 333.3
14 18:20 8 96 7.94 7.4 19 20 1017.7 3.8 18.4 26.7 40.2 105.4 97.1 333.3
14 18:10 8 95 7.86 7.2 19 24 1017.6 3.8 18.3 26.5 39.9 104.5 96.0 329.3
14 18:00 8.3 91 7.67 6.9 20 26 1017.6 3.8 17.8 26.1 38.9 102.0 93.0 318.8
14 17:50 8.4 91 7.72 7 20 28 1017.4 3.8 18.0 26.2 39.1 102.4 93.6 320.8
14 17:40 8.5 91 7.77 7.1 22 26 1017.3 3.8 18.1 26.2 39.2 102.8 94.1 322.8
14 17:30 8.6 91 7.82 7.2 19 22 1017.1 3.8 18.2 26.3 39.4 103.2 94.7 324.7
14 17:20 8.6 92 7.91 7.4 20 22 1017.1 3.8 18.4 26.4 39.8 104.2 95.9 329.1
14 17:10 8.6 93 7.99 7.5 20 22 1017.1 3.8 18.5 26.6 40.1 105.1 97.0 333.0
14 17:00 8.6 92 7.91 7.4 20 32 1016.9 3.8 18.4 26.4 39.7 104.2 95.9 329.0
14 16:50 8.6 92 7.91 7.4 26 30 1016.9 3.8 18.4 26.4 39.7 104.2 95.9 329.0
14 16:40 8.7 93 8.05 7.6 24 28 1016.9 3.8 18.6 26.6 40.3 105.6 97.7 335.4
14 16:30 8.8 93 8.1 7.7 22 26 1016.8 3.8 18.8 26.7 40.4 106.1 98.3 337.4
14 16:20 8.9 94 8.24 8 20 22 1016.7 3.8 19.0 26.9 41.0 107.5 100.1 343.7
14 16:10 8.9 93 8.15 7.8 20 24 1016.6 3.8 18.9 26.7 40.6 106.5 98.8 339.3
14 16:00 9 94 8.29 8.1 17 20 1016.5 3.8 19.2 26.9 41.1 107.9 100.7 345.7
14 15:50 8.9 95 8.32 8.1 20 24 1016.4 3.8 19.2 27.0 41.3 108.4 101.2 347.6
14 15:40 9.2 95 8.49 8.4 15 17 1016.5 3.6 19.6 27.2 41.9 109.9 103.2 354.6
14 15:30 9.2 94 8.4 8.3 19 22 1016.4 3.4 19.4 27.1 41.5 108.9 101.9 350.1
14 15:20 9.2 94 8.4 8.3 20 22 1016.4 3.4 19.4 27.1 41.5 108.9 101.9 350.1
14 15:10 9.2 94 8.4 8.3 24 28 1016.4 3.2 19.4 27.1 41.5 108.9 101.9 350.1
14 15:00 9.2 95 8.49 8.4 24 28 1016.3 3.2 19.6 27.2 41.9 109.9 103.2 354.5
14 14:50 9.2 94 8.4 8.3 15 19 1016.4 2.8 19.4 27.1 41.5 108.9 101.9 350.1
14 14:40 9.1 94 8.34 8.2 20 22 1016.3 2.6 19.3 27.0 41.3 108.3 101.2 347.6
14 14:30 9.2 94 8.4 8.3 19 24 1016.2 2.4 19.4 27.1 41.5 108.8 101.9 350.1
14 14:20 9.2 94 8.4 8.3 17 19 1016.3 2.4 19.4 27.1 41.5 108.8 101.9 350.1
14 14:10 9 93 8.2 7.9 30 32 1016.3 2.2 19.0 26.8 40.7 106.9 99.4 341.2
14 14:00 9.1 93 8.25 8 24 30 1016.3 1.8 19.1 26.8 40.9 107.3 99.9 343.2
14 13:50 9.1 91 8.08 7.7 22 26 1016.3 1.4 18.7 26.5 40.2 105.4 97.6 335.0
14 13:40 9.3 92 8.27 8.1 17 19 1016.3 1.4 19.1 26.8 40.9 107.2 100.0 343.3
14 13:30 9.2 92 8.22 8 24 30 1016.3 1.4 19.0 26.7 40.7 106.8 99.4 341.3
14 13:20 9.2 93 8.31 8.1 22 26 1016.3 1.4 19.2 26.9 41.1 107.8 100.7 345.7
14 13:10 9.1 92 8.17 7.9 24 30 1016.4 1.4 18.9 26.7 40.6 106.4 98.8 339.4
14 13:00 9.1 93 8.25 8 22 30 1016.4 1.4 19.1 26.8 40.9 107.3 100.0 343.3
14 12:50 8.9 93 8.15 7.8 22 24 1016.5 1.4 18.9 26.7 40.6 106.4 98.8 339.3
14 12:40 8.9 93 8.15 7.8 20 28 1016.7 1.2 18.9 26.7 40.6 106.5 98.8 339.3
14 12:30 9 95 8.38 8.2 19 26 1016.8 1.2 19.3 27.1 41.5 109.0 101.9 350.2
14 12:20 8.9 94 8.24 8 19 22 1017 1.2 19.0 26.9 41.0 107.5 100.1 343.8
14 12:10 8.9 94 8.24 8 22 26 1017.1 1.2 19.0 26.9 41.0 107.5 100.1 343.9
14 12:00 8.7 94 8.13 7.8 22 32 1017.1 1 18.8 26.8 40.6 106.6 98.9 339.4
14 11:50 8.8 95 8.27 8 19 22 1017.4 1 19.1 27.0 41.2 108.0 100.7 345.9
14 11:40 8.7 94 8.13 7.8 20 24 1017.4 1 18.8 26.8 40.6 106.6 98.9 339.4
14 11:30 8.7 94 8.13 7.8 20 24 1017.6 1 18.8 26.8 40.7 106.6 98.9 339.5
14 11:20 8.6 94 8.08 7.7 19 22 1017.8 1 18.7 26.7 40.5 106.2 98.3 337.5
14 11:10 8.5 94 8.03 7.6 17 20 1017.9 1 18.6 26.7 40.3 105.8 97.8 335.6
14 11:00 8.4 94 7.98 7.5 24 28 1018 1 18.5 26.6 40.2 105.4 97.2 333.6
14 10:50 8.5 95 8.11 7.7 22 26 1018.2 1 18.8 26.8 40.7 106.7 98.9 339.6
14 10:40 8.4 94 7.98 7.5 20 24 1018.2 1 18.5 26.7 40.2 105.4 97.2 333.6
14 10:30 8.3 95 8.01 7.5 24 28 1018.3 0.8 18.6 26.7 40.4 105.9 97.8 335.6
14 10:20 8.3 96 8.09 7.7 20 24 1018.4 0.8 18.8 26.9 40.7 106.8 98.9 339.5
14 10:10 8.2 95 7.96 7.4 22 28 1018.4 0.8 18.5 26.7 40.2 105.5 97.2 333.6
14 10:00 8.2 96 8.04 7.6 20 26 1018.5 0.6 18.6 26.8 40.6 106.4 98.4 337.5
14 09:50 8.1 96 7.99 7.5 24 28 1018.4 0.6 18.5 26.8 40.4 105.9 97.8 335.5
14 09:40 8.1 96 7.99 7.5 20 26 1018.4 0.4 18.5 26.8 40.4 105.9 97.8 335.5
14 09:30 7.9 96 7.89 7.3 20 26 1018.3 0.4 18.3 26.7 40.1 105.1 96.6 331.4
14 09:20 7.9 96 7.89 7.3 24 28 1018.3 0.4 18.3 26.7 40.1 105.1 96.6 331.4
14 09:10 7.8 96 7.84 7.2 17 24 1018.3 0.2 18.2 26.6 39.9 104.6 96.0 329.4
14 09:00 7.8 96 7.84 7.2 22 26 1018.3 0 18.2 26.6 39.9 104.6 96.0 329.4
14 08:50 7.7 96 7.79 7.1 20 20 1018.3 1.4 18.1 26.5 39.8 104.2 95.5 327.3
14 08:40 7.7 96 7.79 7.1 19 22 1018.2 1 18.1 26.5 39.7 104.2 95.5 327.3
14 08:30 7.7 96 7.79 7.1 22 26 1018.1 0.8 18.1 26.5 39.7 104.2 95.5 327.3

Last Refresh: 15-Jun-2024 01:15:47

Bureau of Meteorology